createdAt,value
2024-02-26T00:02:18.632Z,10.18
2024-02-26T00:04:45.490Z,9.45
2024-02-26T00:07:12.488Z,11.25
2024-02-26T00:09:39.593Z,9.05
2024-02-26T00:12:06.564Z,7.57
2024-02-26T00:14:33.487Z,8.52
2024-02-26T00:17:00.878Z,7.88
2024-02-26T00:19:27.824Z,11.35
2024-02-26T00:21:56.519Z,12.10
2024-02-26T00:24:23.644Z,9.40
2024-02-26T00:26:54.532Z,14.70
2024-02-26T00:29:21.976Z,8.30
2024-02-26T00:31:49.259Z,7.80
2024-02-26T00:34:16.144Z,12.90
2024-02-26T00:36:43.065Z,11.38
2024-02-26T00:39:10.776Z,9.65
2024-02-26T00:41:43.935Z,9.45
2024-02-26T00:44:10.892Z,10.80
2024-02-26T00:46:38.153Z,12.27
2024-02-26T00:49:05.138Z,13.93
2024-02-26T00:51:32.380Z,9.50
2024-02-26T00:53:59.459Z,10.93
2024-02-26T00:56:26.563Z,14.15
2024-02-26T00:58:53.385Z,11.65
2024-02-26T01:01:20.440Z,8.95
2024-02-26T01:03:47.362Z,9.85
2024-02-26T01:06:14.396Z,8.98
2024-02-26T01:08:41.597Z,9.88
2024-02-26T01:11:09.204Z,8.50
2024-02-26T01:13:36.141Z,6.55
2024-02-26T01:16:03.538Z,10.45
2024-02-26T01:18:30.598Z,10.45
2024-02-26T01:20:57.945Z,10.88
2024-02-26T01:23:24.972Z,6.15
2024-02-26T01:25:51.913Z,8.30
2024-02-26T01:28:18.807Z,9.55
2024-02-26T01:30:46.696Z,4.40
2024-02-26T01:33:13.801Z,8.82
2024-02-26T01:35:40.921Z,6.15
2024-02-26T01:38:08.007Z,9.95
2024-02-26T01:40:34.865Z,7.03
2024-02-26T01:43:02.339Z,12.00
2024-02-26T01:45:29.917Z,8.25
2024-02-26T01:47:57.150Z,6.25
2024-02-26T01:50:25.489Z,7.00
2024-02-26T01:52:53.665Z,10.20
2024-02-26T01:55:20.926Z,6.05
2024-02-26T01:57:49.593Z,7.40
2024-02-26T02:00:17.992Z,12.07
2024-02-26T02:02:48.295Z,8.77
2024-02-26T02:05:19.195Z,10.13
2024-02-26T02:07:46.816Z,8.98
2024-02-26T02:10:14.197Z,10.50
2024-02-26T02:12:41.916Z,9.05
2024-02-26T02:15:09.489Z,9.85
2024-02-26T02:17:36.701Z,11.23
2024-02-26T02:20:05.321Z,11.43
2024-02-26T02:22:33.630Z,9.70
2024-02-26T02:25:00.551Z,11.18
2024-02-26T02:27:28.284Z,16.58
2024-02-26T02:29:55.240Z,14.05
2024-02-26T02:32:22.395Z,12.60
2024-02-26T02:34:49.789Z,12.68
2024-02-26T02:37:16.877Z,10.63
2024-02-26T02:39:44.626Z,11.05
2024-02-26T02:42:12.108Z,13.18
2024-02-26T02:44:39.444Z,13.70
2024-02-26T02:47:06.367Z,13.38
2024-02-26T02:49:33.303Z,14.15
2024-02-26T02:52:00.419Z,13.38
2024-02-26T02:54:27.389Z,13.35
2024-02-26T02:56:54.359Z,17.70
2024-02-26T02:59:21.323Z,16.92
2024-02-26T03:01:48.206Z,14.38
2024-02-26T03:04:15.137Z,19.75
2024-02-26T03:06:42.132Z,13.23
2024-02-26T03:09:09.433Z,11.50
2024-02-26T03:11:36.440Z,12.15
2024-02-26T03:14:03.537Z,14.00
2024-02-26T03:16:30.502Z,14.38
2024-02-26T03:18:57.472Z,16.40
2024-02-26T03:21:25.021Z,18.30
2024-02-26T03:23:51.968Z,15.93
2024-02-26T03:26:18.797Z,14.48
2024-02-26T03:28:45.688Z,11.68
2024-02-26T03:31:12.526Z,13.75
2024-02-26T03:33:39.688Z,15.88
2024-02-26T03:36:08.878Z,20.08
2024-02-26T03:38:35.809Z,15.15
2024-02-26T03:41:02.695Z,16.08
2024-02-26T03:43:29.644Z,13.73
2024-02-26T03:45:56.525Z,14.55
2024-02-26T03:48:23.534Z,15.93
2024-02-26T03:50:50.531Z,14.77
2024-02-26T03:53:17.395Z,15.18
2024-02-26T03:55:44.346Z,16.88
2024-02-26T03:58:13.838Z,19.95
2024-02-26T04:00:40.685Z,20.88
2024-02-26T04:03:07.973Z,15.82
2024-02-26T04:05:34.846Z,17.85
2024-02-26T04:08:01.641Z,17.55
2024-02-26T04:10:28.495Z,16.88
2024-02-26T04:12:55.395Z,19.23
2024-02-26T04:15:22.274Z,17.55
2024-02-26T04:17:49.341Z,20.52
2024-02-26T04:20:17.134Z,14.82
2024-02-26T04:22:44.087Z,17.48
2024-02-26T04:25:11.312Z,22.77
2024-02-26T04:27:38.508Z,18.85
2024-02-26T04:30:06.225Z,15.55
2024-02-26T04:32:33.186Z,19.27
2024-02-26T04:35:00.254Z,17.52
2024-02-26T04:37:32.373Z,18.02
2024-02-26T04:40:02.829Z,16.45
2024-02-26T04:42:29.858Z,18.15
2024-02-26T04:44:56.808Z,14.68
2024-02-26T04:47:23.899Z,16.33
2024-02-26T04:49:51.803Z,23.95
2024-02-26T04:52:19.912Z,19.45
2024-02-26T04:54:46.936Z,19.60
2024-02-26T04:57:14.061Z,25.15
2024-02-26T04:59:42.292Z,24.45
2024-02-26T05:02:09.477Z,23.05
2024-02-26T05:04:36.513Z,25.35
2024-02-26T05:07:03.617Z,28.33
2024-02-26T05:09:30.857Z,26.27
2024-02-26T05:11:57.783Z,23.77
2024-02-26T05:14:24.668Z,25.73
2024-02-26T05:16:51.615Z,25.38
2024-02-26T05:19:18.709Z,23.60
2024-02-26T05:21:45.568Z,27.77
2024-02-26T05:24:12.546Z,23.38
2024-02-26T05:26:39.471Z,25.30
2024-02-26T05:29:06.296Z,26.27
2024-02-26T05:31:33.184Z,30.35
2024-02-26T05:34:00.380Z,22.25
2024-02-26T05:36:27.439Z,29.65
2024-02-26T05:38:54.371Z,22.85
2024-02-26T05:41:24.714Z,32.17
2024-02-26T05:43:51.787Z,27.40
2024-02-26T05:46:19.635Z,25.20
2024-02-26T05:48:48.824Z,23.08
2024-02-26T05:51:15.950Z,24.20
2024-02-26T05:53:42.929Z,30.45
2024-02-26T05:56:09.846Z,21.45
2024-02-26T05:58:36.687Z,23.42
2024-02-26T06:01:03.664Z,18.83
2024-02-26T06:03:31.095Z,21.77
2024-02-26T06:05:58.115Z,22.05
2024-02-26T06:08:25.000Z,20.40
2024-02-26T06:10:51.980Z,22.63
2024-02-26T06:13:18.819Z,16.40
2024-02-26T06:15:45.667Z,20.30
2024-02-26T06:18:12.826Z,17.20
2024-02-26T06:20:39.823Z,15.23
2024-02-26T06:23:06.679Z,20.45
2024-02-26T06:25:33.559Z,18.58
2024-02-26T06:28:00.423Z,15.68
2024-02-26T06:30:27.470Z,12.90
2024-02-26T06:32:54.681Z,20.52
2024-02-26T06:35:21.729Z,16.70
2024-02-26T06:37:48.623Z,17.35
2024-02-26T06:40:16.095Z,22.75
2024-02-26T06:42:47.374Z,13.68
2024-02-26T06:45:15.798Z,13.40
2024-02-26T06:47:44.034Z,15.50
2024-02-26T06:50:12.777Z,16.17
2024-02-26T06:52:39.609Z,14.15
2024-02-26T06:55:09.067Z,12.90
2024-02-26T06:57:35.993Z,13.45
2024-02-26T07:00:05.253Z,12.98
2024-02-26T07:02:32.544Z,10.20
2024-02-26T07:04:59.647Z,14.32
2024-02-26T07:07:26.787Z,11.75
2024-02-26T07:09:53.676Z,10.88
2024-02-26T07:12:22.669Z,10.18
2024-02-26T07:14:50.596Z,10.63
2024-02-26T07:17:17.984Z,8.55
2024-02-26T07:19:44.930Z,11.82
2024-02-26T07:22:11.950Z,8.00
2024-02-26T07:24:39.241Z,8.07
2024-02-26T07:27:06.514Z,16.52
2024-02-26T07:29:33.477Z,9.77
2024-02-26T07:32:00.378Z,11.35
2024-02-26T07:34:28.970Z,9.80
2024-02-26T07:36:57.131Z,8.32
2024-02-26T07:39:24.069Z,8.05
2024-02-26T07:41:53.063Z,11.30
2024-02-26T07:44:21.125Z,8.30
2024-02-26T07:46:48.257Z,6.70
2024-02-26T07:49:15.636Z,7.03
2024-02-26T07:51:43.382Z,6.90
2024-02-26T07:54:10.296Z,6.65
2024-02-26T07:56:37.218Z,7.40
2024-02-26T07:59:04.324Z,6.75
2024-02-26T08:01:31.207Z,6.95
2024-02-26T08:03:58.333Z,8.73
2024-02-26T08:06:26.655Z,6.22
2024-02-26T08:08:56.961Z,8.77
2024-02-26T08:11:24.022Z,7.68
2024-02-26T08:13:50.948Z,7.55
2024-02-26T08:16:19.563Z,5.45
2024-02-26T08:18:47.089Z,5.50
2024-02-26T08:21:14.007Z,5.70
2024-02-26T08:23:40.790Z,5.68
2024-02-26T08:26:11.731Z,7.68
2024-02-26T08:28:39.279Z,7.70
2024-02-26T08:31:06.091Z,5.80
2024-02-26T08:33:33.086Z,6.90
2024-02-26T08:36:00.987Z,5.18
2024-02-26T08:38:28.099Z,5.00
2024-02-26T08:40:54.949Z,5.65
2024-02-26T08:43:21.916Z,5.13
2024-02-26T08:45:48.744Z,5.03
2024-02-26T08:48:15.811Z,5.68
2024-02-26T08:50:42.970Z,10.90
2024-02-26T08:53:09.833Z,5.28
2024-02-26T08:55:36.718Z,5.05
2024-02-26T08:58:03.759Z,7.40
2024-02-26T09:00:30.706Z,5.90
2024-02-26T09:02:57.839Z,6.47
2024-02-26T09:05:24.791Z,6.43
2024-02-26T09:07:53.247Z,3.75
2024-02-26T09:10:20.078Z,7.55
2024-02-26T09:12:47.274Z,7.05
2024-02-26T09:15:14.365Z,5.65
2024-02-26T09:17:41.358Z,5.18
2024-02-26T09:20:10.524Z,5.65
2024-02-26T09:22:39.369Z,6.40
2024-02-26T09:25:06.856Z,5.72
2024-02-26T09:27:33.854Z,5.28
2024-02-26T09:30:00.836Z,7.15
2024-02-26T09:32:27.772Z,8.13
2024-02-26T09:34:54.641Z,7.63
2024-02-26T09:37:22.471Z,5.95
2024-02-26T09:39:49.751Z,9.80
2024-02-26T09:42:19.371Z,5.95
2024-02-26T09:44:47.062Z,11.00
2024-02-26T09:47:18.364Z,7.82
2024-02-26T09:49:45.611Z,4.95
2024-02-26T09:52:12.932Z,21.45
2024-02-26T09:54:40.422Z,9.35
2024-02-26T09:57:16.137Z,4.70
2024-02-26T09:59:43.614Z,5.03
2024-02-26T10:02:12.724Z,5.43
2024-02-26T10:04:40.925Z,5.25
2024-02-26T10:07:11.467Z,6.50
2024-02-26T10:09:38.546Z,5.82
2024-02-26T10:12:06.211Z,7.00
2024-02-26T10:14:33.138Z,5.35
2024-02-26T10:17:02.352Z,6.35
2024-02-26T10:19:30.785Z,7.00
2024-02-26T10:21:58.958Z,6.70
2024-02-26T10:24:26.712Z,5.72
2024-02-26T10:26:54.314Z,6.45
2024-02-26T10:29:21.305Z,5.65
2024-02-26T10:31:48.259Z,7.10
2024-02-26T10:34:18.717Z,7.78
2024-02-26T10:36:52.777Z,5.05
2024-02-26T10:39:21.984Z,4.45
2024-02-26T10:41:49.379Z,5.60
2024-02-26T10:44:18.739Z,5.80
2024-02-26T10:46:48.890Z,5.25
2024-02-26T10:49:19.459Z,4.18
2024-02-26T10:51:48.540Z,4.70
2024-02-26T10:54:17.289Z,5.40
2024-02-26T10:56:44.973Z,3.97
2024-02-26T10:59:12.269Z,5.18
2024-02-26T11:01:41.842Z,4.78
2024-02-26T11:04:10.189Z,5.05
2024-02-26T11:06:37.863Z,2.67
2024-02-26T11:09:05.459Z,3.50
2024-02-26T11:11:33.492Z,3.88
2024-02-26T11:14:00.352Z,5.00
2024-02-26T11:16:27.297Z,2.55
2024-02-26T11:18:56.882Z,5.35
2024-02-26T11:21:39.856Z,6.15
2024-02-26T11:24:19.656Z,1.90
2024-02-26T11:26:49.839Z,2.50
2024-02-26T11:29:18.775Z,2.25
2024-02-26T11:31:45.760Z,2.38
2024-02-26T11:34:13.154Z,3.28
2024-02-26T11:36:40.660Z,6.45
2024-02-26T11:39:08.145Z,2.53
2024-02-26T11:41:35.071Z,3.40
2024-02-26T11:44:02.686Z,4.95
2024-02-26T11:46:33.379Z,3.45
2024-02-26T11:49:02.740Z,2.75
2024-02-26T11:51:33.631Z,5.55
2024-02-26T11:54:00.571Z,2.45
2024-02-26T11:56:34.109Z,4.32
2024-02-26T11:59:02.428Z,3.25
2024-02-26T12:01:52.077Z,2.53
2024-02-26T12:04:21.016Z,5.88
2024-02-26T12:06:56.811Z,3.65
2024-02-26T12:09:32.887Z,6.47
2024-02-26T12:12:00.796Z,2.67
2024-02-26T12:14:28.374Z,2.63
2024-02-26T12:16:57.771Z,4.22
2024-02-26T12:19:25.224Z,3.45
2024-02-26T12:21:58.347Z,9.32
2024-02-26T12:24:25.537Z,3.20
2024-02-26T12:26:52.659Z,6.88
2024-02-26T12:29:19.585Z,5.70
2024-02-26T12:31:46.619Z,3.22
2024-02-26T12:34:13.738Z,3.80
2024-02-26T12:36:41.613Z,4.95
2024-02-26T12:39:09.485Z,3.83
2024-02-26T12:41:36.829Z,4.18
2024-02-26T12:44:03.898Z,4.00
2024-02-26T12:46:31.702Z,3.53
2024-02-26T12:49:00.100Z,6.90
2024-02-26T12:51:27.923Z,6.40
2024-02-26T12:53:56.859Z,6.50
2024-02-26T12:56:24.905Z,5.93
2024-02-26T12:58:52.270Z,4.45
2024-02-26T13:01:20.204Z,3.97
2024-02-26T13:03:47.453Z,4.82
2024-02-26T13:06:14.747Z,5.35
2024-02-26T13:08:41.889Z,4.25
2024-02-26T13:11:09.468Z,3.90
2024-02-26T13:13:36.378Z,3.80
2024-02-26T13:16:05.297Z,5.13
2024-02-26T13:18:32.738Z,3.55
2024-02-26T13:21:12.670Z,6.85
2024-02-26T13:23:40.664Z,3.47
2024-02-26T13:26:07.965Z,3.63
2024-02-26T13:28:35.433Z,2.97
2024-02-26T13:31:02.703Z,2.35
2024-02-26T13:33:30.485Z,3.15
2024-02-26T13:35:58.363Z,3.20
2024-02-26T13:38:25.664Z,2.90
2024-02-26T13:40:52.878Z,4.97
2024-02-26T13:43:20.776Z,2.45
2024-02-26T13:45:48.445Z,5.72
2024-02-26T13:48:16.028Z,5.43
2024-02-26T13:50:47.430Z,4.32
2024-02-26T13:53:15.426Z,7.68
2024-02-26T13:55:45.645Z,6.35
2024-02-26T13:58:13.871Z,6.15
2024-02-26T14:00:43.291Z,4.00
2024-02-26T14:03:10.918Z,7.70
2024-02-26T14:05:38.028Z,2.97
2024-02-26T14:08:05.462Z,8.60
2024-02-26T14:10:33.248Z,8.85
2024-02-26T14:13:00.888Z,4.05
2024-02-26T14:15:30.314Z,4.95
2024-02-26T14:17:58.232Z,6.25
2024-02-26T14:20:26.364Z,5.97
2024-02-26T14:22:54.856Z,3.42
2024-02-26T14:25:22.518Z,8.63
2024-02-26T14:27:49.916Z,2.85
2024-02-26T14:30:17.315Z,5.03
2024-02-26T14:32:45.341Z,5.93
2024-02-26T14:35:16.743Z,5.57
2024-02-26T14:37:48.139Z,6.07
2024-02-26T14:40:15.861Z,6.07
2024-02-26T14:42:43.052Z,4.05
2024-02-26T14:45:11.001Z,3.03
2024-02-26T14:47:38.873Z,19.80
2024-02-26T14:50:06.141Z,8.48
2024-02-26T14:52:33.182Z,8.13
2024-02-26T14:55:00.184Z,9.80
2024-02-26T14:57:27.366Z,4.97
2024-02-26T14:59:54.657Z,7.18
2024-02-26T15:02:21.623Z,5.25
2024-02-26T15:04:49.697Z,3.97
2024-02-26T15:07:17.506Z,6.00
2024-02-26T15:09:44.696Z,3.53
2024-02-26T15:12:12.022Z,5.32
2024-02-26T15:14:40.285Z,5.38
2024-02-26T15:17:11.924Z,4.57
2024-02-26T15:19:39.526Z,3.53
2024-02-26T15:22:06.821Z,4.13
2024-02-26T15:24:33.817Z,11.45
2024-02-26T15:27:00.838Z,4.07
2024-02-26T15:29:28.237Z,5.22
2024-02-26T15:31:56.010Z,4.97
2024-02-26T15:34:23.318Z,4.15
2024-02-26T15:36:50.521Z,5.80
2024-02-26T15:39:17.625Z,7.80
2024-02-26T15:41:44.586Z,6.90
2024-02-26T15:44:11.534Z,6.88
2024-02-26T15:46:42.212Z,4.40
2024-02-26T15:49:11.229Z,10.07
2024-02-26T15:51:39.815Z,5.43
2024-02-26T15:54:06.836Z,6.10
2024-02-26T15:56:33.877Z,5.30
2024-02-26T15:59:01.267Z,5.65
2024-02-26T16:01:32.199Z,5.95
2024-02-26T16:03:59.605Z,10.15
2024-02-26T16:06:33.238Z,4.57
2024-02-26T16:09:00.689Z,4.20
2024-02-26T16:11:27.827Z,9.60
2024-02-26T16:13:59.228Z,5.53
2024-02-26T16:16:27.745Z,35.40
2024-02-26T16:18:59.125Z,4.10
2024-02-26T16:21:30.287Z,3.20
2024-02-26T16:23:58.504Z,3.83
2024-02-26T16:26:25.671Z,5.53
2024-02-26T16:28:52.587Z,7.07
2024-02-26T16:31:19.525Z,4.53
2024-02-26T16:33:46.739Z,4.35
2024-02-26T16:36:14.093Z,6.78
2024-02-26T16:38:41.046Z,4.95
2024-02-26T16:41:08.079Z,5.78
2024-02-26T16:43:36.911Z,8.45
2024-02-26T16:46:06.593Z,6.25
2024-02-26T16:48:36.977Z,4.55
2024-02-26T16:51:04.320Z,3.70
2024-02-26T16:53:31.218Z,7.07
2024-02-26T16:56:00.234Z,4.13
2024-02-26T16:58:27.332Z,3.30
2024-02-26T17:00:54.264Z,8.45
2024-02-26T17:03:21.332Z,10.68
2024-02-26T17:05:48.330Z,5.35
2024-02-26T17:08:15.340Z,3.88
2024-02-26T17:10:42.261Z,6.38
2024-02-26T17:13:09.427Z,3.92
2024-02-26T17:15:37.039Z,4.35
2024-02-26T17:18:04.293Z,7.13
2024-02-26T17:20:31.286Z,3.38
2024-02-26T17:22:58.406Z,2.40
2024-02-26T17:25:25.397Z,6.25
2024-02-26T17:27:52.417Z,3.03
2024-02-26T17:30:19.301Z,2.72
2024-02-26T17:32:46.237Z,3.13
2024-02-26T17:35:16.380Z,4.43
2024-02-26T17:37:44.033Z,3.78
2024-02-26T17:40:11.523Z,5.07
2024-02-26T17:42:38.417Z,5.43
2024-02-26T17:45:05.763Z,4.15
2024-02-26T17:47:32.745Z,1.83
2024-02-26T17:49:59.625Z,2.85
2024-02-26T17:52:26.591Z,3.72
2024-02-26T17:54:53.506Z,2.33
2024-02-26T17:57:22.097Z,6.95
2024-02-26T17:59:49.470Z,5.35
2024-02-26T18:02:16.413Z,4.32
2024-02-26T18:04:43.349Z,5.47
2024-02-26T18:07:10.324Z,2.22
2024-02-26T18:09:38.958Z,1.80
2024-02-26T18:12:06.633Z,5.60
2024-02-26T18:14:33.707Z,6.43
2024-02-26T18:17:00.679Z,1.55
2024-02-26T18:19:27.687Z,2.90
2024-02-26T18:21:54.748Z,3.60
2024-02-26T18:24:21.742Z,2.80
2024-02-26T18:26:51.586Z,2.83
2024-02-26T18:29:18.569Z,4.70
2024-02-26T18:31:45.488Z,2.17
2024-02-26T18:34:12.453Z,3.88
2024-02-26T18:36:43.685Z,3.25
2024-02-26T18:39:13.610Z,3.28
2024-02-26T18:41:40.614Z,4.28
2024-02-26T18:44:07.698Z,2.35
2024-02-26T18:46:35.904Z,6.30
2024-02-26T18:49:02.937Z,1.50
2024-02-26T18:51:30.073Z,4.22
2024-02-26T18:53:57.033Z,10.40
2024-02-26T18:56:24.299Z,2.40
2024-02-26T18:58:51.308Z,3.20
2024-02-26T19:01:18.403Z,3.22
2024-02-26T19:03:45.557Z,6.25
2024-02-26T19:06:12.544Z,3.65
2024-02-26T19:08:40.632Z,3.03
2024-02-26T19:11:08.470Z,3.95
2024-02-26T19:13:35.669Z,1.90
2024-02-26T19:16:03.799Z,2.50
2024-02-26T19:18:30.959Z,2.65
2024-02-26T19:20:58.136Z,7.45
2024-02-26T19:23:25.307Z,1.73
2024-02-26T19:25:52.247Z,3.65
2024-02-26T19:28:19.149Z,5.15
2024-02-26T19:30:46.177Z,4.90
2024-02-26T19:33:13.364Z,4.90
2024-02-26T19:35:40.349Z,5.95
2024-02-26T19:38:08.700Z,4.07
2024-02-26T19:40:35.786Z,2.00
2024-02-26T19:43:04.671Z,3.50
2024-02-26T19:45:31.687Z,2.25
2024-02-26T19:47:58.798Z,2.30
2024-02-26T19:50:25.925Z,2.22
2024-02-26T19:52:53.665Z,2.78
2024-02-26T19:55:22.863Z,6.47
2024-02-26T19:57:49.860Z,1.60
2024-02-26T20:00:16.924Z,4.03
2024-02-26T20:02:43.921Z,2.13
2024-02-26T20:05:11.021Z,3.00
2024-02-26T20:07:38.875Z,1.05
2024-02-26T20:10:06.008Z,2.00
2024-02-26T20:12:33.126Z,3.67
2024-02-26T20:15:00.299Z,2.97
2024-02-26T20:17:27.366Z,2.42
2024-02-26T20:19:59.441Z,4.93
2024-02-26T20:22:26.814Z,6.82
2024-02-26T20:24:53.694Z,3.58
2024-02-26T20:27:20.729Z,4.47
2024-02-26T20:29:48.912Z,3.45
2024-02-26T20:32:15.834Z,6.85
2024-02-26T20:34:42.962Z,1.80
2024-02-26T20:37:10.085Z,3.40
2024-02-26T20:39:36.935Z,3.22
2024-02-26T20:42:04.376Z,4.25
2024-02-26T20:44:31.449Z,4.60
2024-02-26T20:47:00.333Z,2.25
2024-02-26T20:49:27.753Z,4.70
2024-02-26T20:51:55.463Z,2.17
2024-02-26T20:54:22.513Z,3.80
2024-02-26T20:56:50.935Z,5.78
2024-02-26T20:59:18.195Z,3.47
2024-02-26T21:01:46.003Z,2.90
2024-02-26T21:04:13.266Z,3.63
2024-02-26T21:06:40.431Z,2.05
2024-02-26T21:09:07.690Z,3.97
2024-02-26T21:11:37.881Z,2.63
2024-02-26T21:14:05.015Z,2.80
2024-02-26T21:16:31.865Z,8.02
2024-02-26T21:19:01.034Z,3.97
2024-02-26T21:21:29.816Z,3.58
2024-02-26T21:23:58.814Z,2.03
2024-02-26T21:26:27.256Z,3.28
2024-02-26T21:28:54.222Z,4.68
2024-02-26T21:31:21.105Z,2.53
2024-02-26T21:33:48.252Z,2.30
2024-02-26T21:36:15.341Z,4.78
2024-02-26T21:38:49.794Z,4.43
2024-02-26T21:41:18.797Z,3.10
2024-02-26T21:43:51.604Z,4.20
2024-02-26T21:46:19.097Z,6.93
2024-02-26T21:48:46.275Z,2.40
2024-02-26T21:51:14.426Z,4.57
2024-02-26T21:53:42.479Z,2.28
2024-02-26T21:56:09.890Z,2.33
2024-02-26T21:58:36.826Z,13.25
2024-02-26T22:01:05.062Z,21.25
2024-02-26T22:03:32.666Z,9.05
2024-02-26T22:05:59.626Z,6.97
2024-02-26T22:08:26.685Z,10.77
2024-02-26T22:10:54.983Z,14.43
2024-02-26T22:13:22.596Z,47.38
2024-02-26T22:15:49.683Z,25.90
2024-02-26T22:18:16.818Z,22.48
2024-02-26T22:20:45.207Z,16.02
2024-02-26T22:23:12.347Z,8.30
2024-02-26T22:25:39.226Z,13.55
2024-02-26T22:28:06.273Z,9.82
2024-02-26T22:30:33.762Z,5.03
2024-02-26T22:33:01.601Z,6.15
2024-02-26T22:35:28.789Z,4.05
2024-02-26T22:37:55.914Z,10.65
2024-02-26T22:40:22.835Z,6.72
2024-02-26T22:42:56.617Z,4.70
2024-02-26T22:45:25.878Z,3.60
2024-02-26T22:47:53.165Z,3.90
2024-02-26T22:50:20.894Z,4.32
2024-02-26T22:52:48.581Z,9.20
2024-02-26T22:55:16.108Z,4.22
2024-02-26T22:57:43.298Z,3.22
2024-02-26T23:00:30.746Z,3.47
2024-02-26T23:02:58.468Z,3.20
2024-02-26T23:05:26.052Z,5.93
2024-02-26T23:07:53.812Z,4.82
2024-02-26T23:10:21.040Z,4.18
2024-02-26T23:12:48.203Z,6.50
2024-02-26T23:15:15.164Z,5.05
2024-02-26T23:17:42.833Z,4.13
2024-02-26T23:20:10.458Z,4.45
2024-02-26T23:22:44.638Z,4.38
2024-02-26T23:25:12.378Z,5.85
2024-02-26T23:27:39.536Z,3.08
2024-02-26T23:30:06.799Z,3.60
2024-02-26T23:32:33.914Z,7.25
2024-02-26T23:35:01.220Z,4.60
2024-02-26T23:37:28.318Z,3.45
2024-02-26T23:39:55.288Z,4.95
2024-02-26T23:42:22.250Z,3.03
2024-02-26T23:44:49.522Z,4.07
2024-02-26T23:47:16.910Z,3.45
2024-02-26T23:49:43.769Z,4.57
2024-02-26T23:52:11.147Z,4.63
2024-02-26T23:54:38.281Z,3.35
2024-02-26T23:57:05.275Z,4.95
2024-02-26T23:59:32.366Z,4.13
